Time;durP1;ratioP1;P1;durP2;ratioP2;P2;SDS_P1;SDS_P2;PMS_P1;PMS_P2;Temp;Humidity;BMP_temperature;BMP_pressure;BME280_temperature;BME280_humidity;BME280_pressure;Samples;Min_cycle;Max_cycle;Signal;HPM_P1;HPM_P2
2024/04/17 00:01:32;;;;;;;8.55;7.72;;;;;;;;;;5485206;26;20231;-56
2024/04/17 00:04:01;;;;;;;6.72;6.22;;;;;;;;;;5487551;26;20561;-57
2024/04/17 00:06:26;;;;;;;6.90;6.28;;;;;;;;;;5485217;26;20330;-57
2024/04/17 00:08:54;;;;;;;7.30;6.60;;;;;;;;;;5487573;26;20605;-57
2024/04/17 00:11:20;;;;;;;7.35;6.65;;;;;;;;;;5484999;26;20580;-56
2024/04/17 00:13:48;;;;;;;6.30;5.70;;;;;;;;;;5487400;26;20262;-57
2024/04/17 00:16:14;;;;;;;6.90;6.20;;;;;;;;;;5484775;26;20231;-55
2024/04/17 00:18:44;;;;;;;5.63;5.22;;;;;;;;;;5487569;26;21025;-56
2024/04/17 00:21:10;;;;;;;8.32;6.80;;;;;;;;;;5484531;26;20231;-56
2024/04/17 00:23:39;;;;;;;6.95;6.15;;;;;;;;;;5487666;26;20330;-54
2024/04/17 00:26:04;;;;;;;7.10;5.68;;;;;;;;;;5484597;26;20231;-55
2024/04/17 00:28:32;;;;;;;9.05;6.47;;;;;;;;;;5487562;26;20699;-56
2024/04/17 00:30:58;;;;;;;5.32;4.82;;;;;;;;;;5484987;26;20231;-55
2024/04/17 00:33:26;;;;;;;7.50;6.72;;;;;;;;;;5486256;26;20223;-57
2024/04/17 00:35:54;;;;;;;7.20;6.50;;;;;;;;;;5422558;26;20239;-56
2024/04/17 00:38:23;;;;;;;5.82;5.32;;;;;;;;;;5487402;26;20235;-56
2024/04/17 00:40:48;;;;;;;8.27;6.85;;;;;;;;;;5484301;26;20265;-56
2024/04/17 00:43:16;;;;;;;8.98;7.00;;;;;;;;;;5486933;26;20230;-55
2024/04/17 00:45:44;;;;;;;10.20;7.03;;;;;;;;;;5484571;26;20272;-57
2024/04/17 00:48:14;;;;;;;7.28;6.57;;;;;;;;;;5486874;26;20269;-56
2024/04/17 00:50:39;;;;;;;8.65;7.85;;;;;;;;;;5484593;26;20231;-57
2024/04/17 00:53:11;;;;;;;9.52;7.40;;;;;;;;;;5486400;26;20292;-55
2024/04/17 00:55:37;;;;;;;7.15;6.55;;;;;;;;;;5421685;26;20696;-57
2024/04/17 00:58:06;;;;;;;8.38;6.50;;;;;;;;;;5486962;26;20230;-57
2024/04/17 01:00:32;;;;;;;6.72;6.03;;;;;;;;;;5484189;26;20551;-57
2024/04/17 01:03:00;;;;;;;8.80;7.13;;;;;;;;;;5487139;26;21092;-55
2024/04/17 01:05:26;;;;;;;8.38;6.80;;;;;;;;;;5484210;26;20223;-56
2024/04/17 01:07:54;;;;;;;7.47;6.82;;;;;;;;;;5486588;26;20363;-56
2024/04/17 01:10:22;;;;;;;8.70;6.60;;;;;;;;;;5422147;26;20231;-56
2024/04/17 01:12:50;;;;;;;7.25;6.57;;;;;;;;;;5486724;26;20849;-57
2024/04/17 01:15:16;;;;;;;8.98;7.20;;;;;;;;;;5484174;26;20273;-55
2024/04/17 01:17:44;;;;;;;6.55;5.97;;;;;;;;;;5486550;26;20739;-56
2024/04/17 01:20:10;;;;;;;6.90;6.30;;;;;;;;;;5420358;26;20261;-54
2024/04/17 01:22:38;;;;;;;9.25;6.93;;;;;;;;;;5486367;26;20290;-54
2024/04/17 01:25:06;;;;;;;6.85;6.28;;;;;;;;;;5484075;26;20723;-55
2024/04/17 01:27:34;;;;;;;6.82;6.13;;;;;;;;;;5486343;26;20243;-55
2024/04/17 01:30:00;;;;;;;7.15;6.47;;;;;;;;;;5484050;26;20677;-57
2024/04/17 01:32:28;;;;;;;8.98;6.95;;;;;;;;;;5486723;26;20337;-55
2024/04/17 01:34:53;;;;;;;6.90;6.22;;;;;;;;;;5483772;26;20775;-54
2024/04/17 01:37:21;;;;;;;7.88;7.15;;;;;;;;;;5422996;26;20343;-56
2024/04/17 01:39:47;;;;;;;7.75;6.80;;;;;;;;;;5483866;26;20227;-56
2024/04/17 01:42:18;;;;;;;7.32;6.20;;;;;;;;;;5485770;26;20336;-56
2024/04/17 01:44:43;;;;;;;6.53;5.68;;;;;;;;;;5483322;26;20235;-56
2024/04/17 01:47:11;;;;;;;7.28;6.63;;;;;;;;;;5422587;26;20610;-55
2024/04/17 01:49:37;;;;;;;7.15;5.43;;;;;;;;;;5483798;26;20226;-55
2024/04/17 01:52:05;;;;;;;5.70;5.15;;;;;;;;;;5485990;26;20276;-57
2024/04/17 01:54:31;;;;;;;7.63;6.32;;;;;;;;;;5483435;26;20243;-56
2024/04/17 01:57:00;;;;;;;10.20;7.78;;;;;;;;;;5486324;26;20307;-56
2024/04/17 01:59:28;;;;;;;7.50;6.78;;;;;;;;;;5483581;26;20298;-57
2024/04/17 02:01:56;;;;;;;7.13;6.53;;;;;;;;;;5486205;26;20273;-56
2024/04/17 02:04:22;;;;;;;8.18;6.30;;;;;;;;;;5419669;26;20762;-54
2024/04/17 02:06:50;;;;;;;8.95;6.68;;;;;;;;;;5485995;26;20219;-56
2024/04/17 02:09:15;;;;;;;8.00;6.53;;;;;;;;;;5483575;26;20258;-55
2024/04/17 02:11:44;;;;;;;9.57;8.57;;;;;;;;;;5485685;26;20235;-56
2024/04/17 02:14:10;;;;;;;12.68;11.52;;;;;;;;;;5483227;26;20242;-56
2024/04/17 02:16:41;;;;;;;10.52;9.57;;;;;;;;;;5485795;26;20231;-55
2024/04/17 02:19:06;;;;;;;10.80;9.80;;;;;;;;;;5483471;26;20226;-56
2024/04/17 02:21:35;;;;;;;13.38;11.95;;;;;;;;;;5485180;26;20347;-56
2024/04/17 02:24:00;;;;;;;9.68;8.80;;;;;;;;;;5483143;26;20223;-56
2024/04/17 02:26:28;;;;;;;8.65;7.57;;;;;;;;;;5485578;26;20331;-56
2024/04/17 02:28:54;;;;;;;6.90;6.30;;;;;;;;;;5482997;26;20226;-55
2024/04/17 02:31:22;;;;;;;7.50;6.75;;;;;;;;;;5485611;26;20235;-57
2024/04/17 02:33:50;;;;;;;7.18;6.53;;;;;;;;;;5419820;26;20646;-56
2024/04/17 02:36:18;;;;;;;7.70;6.90;;;;;;;;;;5483692;26;20239;-54
2024/04/17 02:38:44;;;;;;;7.55;6.85;;;;;;;;;;5482822;26;20298;-57
2024/04/17 02:41:12;;;;;;;6.60;6.10;;;;;;;;;;5485530;26;20226;-56
2024/04/17 02:43:38;;;;;;;6.78;6.07;;;;;;;;;;5482652;26;20231;-57
2024/04/17 02:46:06;;;;;;;10.88;6.68;;;;;;;;;;5485234;26;20331;-56
2024/04/17 02:48:31;;;;;;;7.13;6.43;;;;;;;;;;5420749;26;20231;-55
2024/04/17 02:51:02;;;;;;;6.38;5.88;;;;;;;;;;5485280;26;20234;-56
2024/04/17 02:53:28;;;;;;;7.15;6.15;;;;;;;;;;5482736;26;20239;-56
2024/04/17 02:55:56;;;;;;;7.88;6.18;;;;;;;;;;5484287;26;20331;-57
2024/04/17 02:58:21;;;;;;;6.72;5.90;;;;;;;;;;5482453;26;20226;-56
2024/04/17 03:00:50;;;;;;;7.95;6.50;;;;;;;;;;5484894;26;20277;-56
2024/04/17 03:03:15;;;;;;;6.38;5.82;;;;;;;;;;5482762;26;20223;-55
2024/04/17 03:05:43;;;;;;;7.18;6.25;;;;;;;;;;5421699;26;20435;-56
2024/04/17 03:08:11;;;;;;;6.80;6.15;;;;;;;;;;5482580;26;20230;-56
2024/04/17 03:10:40;;;;;;;7.45;6.13;;;;;;;;;;5484931;26;20227;-56
2024/04/17 03:13:05;;;;;;;7.15;6.20;;;;;;;;;;5482042;26;20279;-55
2024/04/17 03:15:36;;;;;;;7.40;6.70;;;;;;;;;;5484607;26;20635;-55
2024/04/17 03:18:02;;;;;;;6.40;5.80;;;;;;;;;;5482094;26;20261;-55
2024/04/17 03:20:30;;;;;;;8.05;6.45;;;;;;;;;;5484750;26;20231;-56
2024/04/17 03:22:56;;;;;;;8.65;7.07;;;;;;;;;;5482158;26;20348;-56
2024/04/17 03:25:27;;;;;;;7.20;6.57;;;;;;;;;;5484641;26;20234;-55
2024/04/17 03:27:52;;;;;;;8.02;7.20;;;;;;;;;;5481563;26;20223;-54
2024/04/17 03:30:21;;;;;;;10.18;7.55;;;;;;;;;;5421263;26;20830;-56
2024/04/17 03:32:47;;;;;;;8.20;7.40;;;;;;;;;;5481910;26;20226;-55
2024/04/17 03:35:15;;;;;;;7.78;7.03;;;;;;;;;;5483516;26;20295;-52
2024/04/17 03:37:44;;;;;;;6.72;5.97;;;;;;;;;;5481832;26;20642;-55
2024/04/17 03:40:12;;;;;;;8.40;7.72;;;;;;;;;;5481582;26;20261;-55
2024/04/17 03:42:43;;;;;;;7.70;6.93;;;;;;;;;;5481698;26;20227;-57
2024/04/17 03:45:12;;;;;;;6.90;6.28;;;;;;;;;;5481459;26;20263;-56
2024/04/17 03:47:41;;;;;;;7.95;7.15;;;;;;;;;;5481538;26;20759;-54
2024/04/17 03:50:06;;;;;;;6.28;5.78;;;;;;;;;;5419791;26;20230;-54
2024/04/17 03:52:35;;;;;;;7.05;6.45;;;;;;;;;;5420567;26;20273;-56
2024/04/17 03:55:01;;;;;;;7.00;6.00;;;;;;;;;;5418214;26;20257;-55
2024/04/17 03:57:30;;;;;;;8.40;7.63;;;;;;;;;;5484089;26;20231;-55
2024/04/17 03:59:58;;;;;;;10.07;8.23;;;;;;;;;;5481646;26;20227;-55
2024/04/17 04:02:27;;;;;;;10.98;8.05;;;;;;;;;;5483667;26;20227;-56
2024/04/17 04:04:52;;;;;;;7.10;5.80;;;;;;;;;;5481422;26;20820;-56
2024/04/17 04:07:21;;;;;;;7.70;6.97;;;;;;;;;;5484078;26;20271;-54
2024/04/17 04:09:48;;;;;;;8.13;7.10;;;;;;;;;;5422768;26;20638;-56
2024/04/17 04:12:17;;;;;;;6.00;5.50;;;;;;;;;;5487409;26;20322;-55
2024/04/17 04:14:43;;;;;;;12.38;7.90;;;;;;;;;;5484683;26;20288;-54
2024/04/17 04:17:14;;;;;;;9.52;8.20;;;;;;;;;;5424264;26;20261;-56
2024/04/17 04:19:40;;;;;;;9.27;8.27;;;;;;;;;;5484831;26;20261;-55
2024/04/17 04:22:09;;;;;;;13.48;10.25;;;;;;;;;;5424029;26;20279;-54
2024/04/17 04:24:34;;;;;;;9.45;8.15;;;;;;;;;;5484915;26;20343;-54
2024/04/17 04:27:03;;;;;;;11.15;9.48;;;;;;;;;;5424269;26;20814;-54
2024/04/17 04:29:28;;;;;;;11.55;9.80;;;;;;;;;;5484628;26;20231;-55
2024/04/17 04:31:57;;;;;;;9.75;8.85;;;;;;;;;;5423958;26;20293;-56
2024/04/17 04:34:25;;;;;;;9.32;8.52;;;;;;;;;;5421306;26;20222;-55
2024/04/17 04:36:54;;;;;;;9.32;8.50;;;;;;;;;;5421181;26;20281;-55
2024/04/17 04:39:19;;;;;;;7.88;7.18;;;;;;;;;;5484698;26;20270;-57
2024/04/17 04:41:48;;;;;;;8.38;7.57;;;;;;;;;;5486822;26;20223;-56
2024/04/17 04:44:13;;;;;;;9.07;8.18;;;;;;;;;;5484383;26;20234;-54
2024/04/17 04:46:41;;;;;;;7.65;7.03;;;;;;;;;;5487272;26;20272;-54
2024/04/17 04:49:07;;;;;;;7.93;7.22;;;;;;;;;;5484701;26;20251;-55
2024/04/17 04:51:38;;;;;;;10.23;9.25;;;;;;;;;;5486874;26;20227;-55
2024/04/17 04:54:03;;;;;;;9.57;7.78;;;;;;;;;;5484280;26;20814;-56
2024/04/17 04:56:32;;;;;;;7.70;7.00;;;;;;;;;;5486908;26;20226;-54
2024/04/17 04:58:57;;;;;;;7.80;7.05;;;;;;;;;;5484612;26;20226;-57
2024/04/17 05:01:26;;;;;;;8.00;6.82;;;;;;;;;;5486629;26;20222;-54
2024/04/17 05:03:52;;;;;;;9.35;7.60;;;;;;;;;;5484104;26;20747;-54
2024/04/17 05:06:20;;;;;;;7.90;7.13;;;;;;;;;;5486901;26;20343;-55
2024/04/17 05:08:48;;;;;;;8.85;7.53;;;;;;;;;;5484152;26;20230;-55
2024/04/17 05:11:16;;;;;;;9.60;8.60;;;;;;;;;;5453500;26;20274;-54
2024/04/17 05:13:42;;;;;;;10.68;8.02;;;;;;;;;;5483828;26;20230;-54
2024/04/17 05:16:10;;;;;;;9.05;8.13;;;;;;;;;;5486753;26;20729;-54
2024/04/17 05:18:37;;;;;;;8.50;7.70;;;;;;;;;;5484039;26;20548;-53
2024/04/17 05:21:05;;;;;;;9.68;8.45;;;;;;;;;;5486289;26;20261;-53
2024/04/17 05:23:31;;;;;;;9.48;8.57;;;;;;;;;;5484151;26;20230;-54
2024/04/17 05:26:01;;;;;;;8.27;7.45;;;;;;;;;;5423658;26;20232;-54
2024/04/17 05:28:27;;;;;;;8.10;7.30;;;;;;;;;;5484110;26;20326;-55
2024/04/17 05:30:58;;;;;;;6.72;6.13;;;;;;;;;;5486208;26;20218;-55
2024/04/17 05:33:24;;;;;;;7.85;7.15;;;;;;;;;;5483642;26;20231;-54
2024/04/17 05:35:52;;;;;;;7.53;6.85;;;;;;;;;;5485060;26;20243;-55
2024/04/17 05:38:18;;;;;;;10.23;9.25;;;;;;;;;;5483862;26;20804;-55
2024/04/17 05:40:46;;;;;;;11.00;9.98;;;;;;;;;;5486203;26;20239;-53
2024/04/17 05:43:15;;;;;;;21.17;16.65;;;;;;;;;;5483504;26;20348;-53
2024/04/17 05:45:44;;;;;;;20.90;18.00;;;;;;;;;;5486487;26;20594;-56
2024/04/17 05:48:09;;;;;;;20.42;18.48;;;;;;;;;;5483620;26;21121;-54
2024/04/17 05:50:37;;;;;;;22.42;20.15;;;;;;;;;;5486366;26;20230;-52
2024/04/17 05:53:03;;;;;;;18.15;16.45;;;;;;;;;;5483324;26;20830;-54
2024/04/17 05:55:34;;;;;;;19.40;17.48;;;;;;;;;;5486273;26;20226;-55
2024/04/17 05:57:59;;;;;;;16.40;14.95;;;;;;;;;;5483780;26;20222;-57
2024/04/17 06:00:30;;;;;;;18.52;16.85;;;;;;;;;;5486387;26;20282;-57
2024/04/17 06:02:56;;;;;;;19.38;17.75;;;;;;;;;;5483770;26;20886;-54
2024/04/17 06:05:24;;;;;;;15.80;14.20;;;;;;;;;;5485950;26;20277;-55
2024/04/17 06:07:49;;;;;;;19.00;17.15;;;;;;;;;;5483521;26;20310;-56
2024/04/17 06:10:18;;;;;;;22.75;20.42;;;;;;;;;;5422593;26;20709;-53
2024/04/17 06:12:43;;;;;;;16.30;14.77;;;;;;;;;;5483261;26;20235;-56
2024/04/17 06:15:12;;;;;;;19.85;17.85;;;;;;;;;;5485591;26;20284;-57
2024/04/17 06:17:40;;;;;;;12.85;11.55;;;;;;;;;;5483412;26;20331;-56
2024/04/17 06:20:09;;;;;;;11.82;10.63;;;;;;;;;;5452256;26;20227;-55
2024/04/17 06:22:35;;;;;;;11.13;9.85;;;;;;;;;;5483258;26;20235;-52
2024/04/17 06:25:03;;;;;;;12.75;11.52;;;;;;;;;;5485617;26;20290;-56
2024/04/17 06:27:29;;;;;;;11.95;10.75;;;;;;;;;;5483272;26;20227;-56
2024/04/17 06:29:58;;;;;;;10.80;9.63;;;;;;;;;;5485606;26;20609;-55
2024/04/17 06:32:23;;;;;;;11.10;10.18;;;;;;;;;;5481371;26;20235;-56
2024/04/17 06:34:54;;;;;;;7.68;6.97;;;;;;;;;;5485210;26;20269;-57
2024/04/17 06:37:20;;;;;;;9.55;8.05;;;;;;;;;;5419450;26;20226;-57
2024/04/17 06:39:48;;;;;;;9.10;6.78;;;;;;;;;;5485291;26;20877;-56
2024/04/17 06:42:14;;;;;;;9.13;7.07;;;;;;;;;;5482726;26;20238;-57
2024/04/17 06:44:42;;;;;;;6.90;6.20;;;;;;;;;;5485140;26;20936;-57
2024/04/17 06:47:08;;;;;;;6.72;5.70;;;;;;;;;;5482631;26;20993;-56
2024/04/17 06:49:36;;;;;;;5.43;5.00;;;;;;;;;;5485273;26;20223;-54
2024/04/17 06:52:05;;;;;;;5.55;5.05;;;;;;;;;;5482790;26;20335;-58
2024/04/17 06:54:33;;;;;;;8.95;5.85;;;;;;;;;;5422205;26;20235;-57
2024/04/17 06:56:58;;;;;;;6.43;5.10;;;;;;;;;;5483065;26;20315;-57
2024/04/17 06:59:27;;;;;;;6.63;5.47;;;;;;;;;;5485041;26;20226;-57
2024/04/17 07:01:52;;;;;;;9.18;5.20;;;;;;;;;;5482544;26;20348;-56
2024/04/17 07:04:21;;;;;;;7.90;5.22;;;;;;;;;;5484992;26;20238;-56
2024/04/17 07:06:46;;;;;;;4.82;4.43;;;;;;;;;;5482390;26;20277;-56
2024/04/17 07:09:17;;;;;;;5.80;4.90;;;;;;;;;;5421495;26;20231;-55
2024/04/17 07:11:43;;;;;;;7.88;4.97;;;;;;;;;;5482272;26;20226;-54
2024/04/17 07:14:11;;;;;;;6.50;5.72;;;;;;;;;;5484843;26;20227;-57
2024/04/17 07:16:38;;;;;;;6.68;5.35;;;;;;;;;;5482329;26;20277;-55
2024/04/17 07:19:06;;;;;;;6.97;6.15;;;;;;;;;;5484689;26;20231;-55
2024/04/17 07:21:32;;;;;;;7.82;5.72;;;;;;;;;;5481951;26;20277;-57
2024/04/17 07:24:00;;;;;;;6.45;5.85;;;;;;;;;;5484760;26;20279;-53
2024/04/17 07:26:28;;;;;;;6.75;6.05;;;;;;;;;;5481886;26;20235;-55
2024/04/17 07:28:56;;;;;;;8.30;5.63;;;;;;;;;;5484570;26;21167;-52
2024/04/17 07:31:22;;;;;;;7.55;6.18;;;;;;;;;;5481960;26;20273;-56
2024/04/17 07:33:50;;;;;;;7.38;6.13;;;;;;;;;;5484590;26;20680;-55
2024/04/17 07:36:16;;;;;;;5.47;4.97;;;;;;;;;;5482064;26;20239;-53
2024/04/17 07:38:45;;;;;;;6.32;5.05;;;;;;;;;;5484148;26;20227;-56
2024/04/17 07:41:10;;;;;;;4.53;4.10;;;;;;;;;;5481804;26;20342;-53
2024/04/17 07:43:41;;;;;;;4.43;4.00;;;;;;;;;;5486929;26;20615;-55
2024/04/17 07:46:07;;;;;;;4.47;3.55;;;;;;;;;;5485571;26;20269;-53
2024/04/17 07:48:36;;;;;;;4.40;3.80;;;;;;;;;;5487819;26;20231;-53
2024/04/17 07:51:02;;;;;;;5.15;3.10;;;;;;;;;;5485315;26;21166;-54
2024/04/17 07:53:30;;;;;;;2.63;2.42;;;;;;;;;;5488012;26;21473;-56
2024/04/17 07:55:57;;;;;;;4.65;2.30;;;;;;;;;;5485315;26;20306;-53
2024/04/17 07:58:26;;;;;;;2.80;1.90;;;;;;;;;;5487711;26;20230;-51
2024/04/17 08:00:54;;;;;;;2.70;1.85;;;;;;;;;;5484909;26;20276;-53
2024/04/17 08:03:22;;;;;;;3.40;2.03;;;;;;;;;;5487772;26;21203;-55
2024/04/17 08:05:48;;;;;;;4.97;2.40;;;;;;;;;;5485154;26;20315;-55
2024/04/17 08:08:16;;;;;;;3.97;2.45;;;;;;;;;;5487587;26;20234;-51
2024/04/17 08:10:42;;;;;;;5.85;2.47;;;;;;;;;;5485063;26;20231;-55
2024/04/17 08:13:15;;;;;;;3.33;2.38;;;;;;;;;;5424695;26;20227;-55
2024/04/17 08:15:41;;;;;;;6.25;2.22;;;;;;;;;;5485382;26;20338;-53
2024/04/17 08:18:12;;;;;;;2.75;2.13;;;;;;;;;;5487254;26;20231;-56
2024/04/17 08:20:38;;;;;;;4.00;1.85;;;;;;;;;;5485119;26;20227;-55
2024/04/17 08:23:06;;;;;;;2.15;1.83;;;;;;;;;;5487202;26;20300;-53
2024/04/17 08:25:32;;;;;;;6.90;2.30;;;;;;;;;;5423309;26;20318;-54
2024/04/17 08:28:00;;;;;;;2.05;1.67;;;;;;;;;;5487751;26;20723;-52
2024/04/17 08:30:26;;;;;;;1.90;1.75;;;;;;;;;;5485001;26;20720;-55
2024/04/17 08:32:55;;;;;;;1.98;1.30;;;;;;;;;;5487379;26;20227;-54
2024/04/17 08:35:23;;;;;;;2.35;1.42;;;;;;;;;;5484512;26;20360;-52
2024/04/17 08:37:51;;;;;;;3.92;2.00;;;;;;;;;;5487150;26;20849;-53
2024/04/17 08:40:17;;;;;;;2.25;1.30;;;;;;;;;;5484843;26;20326;-54
2024/04/17 08:42:45;;;;;;;1.60;1.48;;;;;;;;;;5487398;26;20588;-53
2024/04/17 08:45:11;;;;;;;2.05;1.15;;;;;;;;;;5484787;26;20299;-54
2024/04/17 08:47:41;;;;;;;3.05;1.45;;;;;;;;;;5487478;26;20246;-54
2024/04/17 08:50:08;;;;;;;2.15;1.20;;;;;;;;;;5484630;26;20272;-52
2024/04/17 08:52:40;;;;;;;1.70;0.95;;;;;;;;;;5486906;26;20281;-52
2024/04/17 08:55:06;;;;;;;3.72;0.95;;;;;;;;;;5483423;26;20312;-55
2024/04/17 08:57:34;;;;;;;4.72;1.17;;;;;;;;;;5486916;26;20307;-55
2024/04/17 08:59:59;;;;;;;1.20;1.10;;;;;;;;;;5484903;26;20327;-53
2024/04/17 09:02:29;;;;;;;0.80;0.80;;;;;;;;;;5423512;26;20630;-53
2024/04/17 09:04:55;;;;;;;0.80;0.80;;;;;;;;;;5484465;26;20227;-51
2024/04/17 09:07:23;;;;;;;1.23;0.80;;;;;;;;;;5486688;26;20335;-53
2024/04/17 09:09:51;;;;;;;1.00;1.00;;;;;;;;;;5484466;26;20326;-55
2024/04/17 09:12:20;;;;;;;1.13;0.82;;;;;;;;;;5486734;26;20223;-50
2024/04/17 09:14:45;;;;;;;2.28;0.90;;;;;;;;;;5483988;26;20356;-53
2024/04/17 09:17:13;;;;;;;0.90;0.70;;;;;;;;;;5486356;26;20235;-51
2024/04/17 09:19:39;;;;;;;1.88;1.10;;;;;;;;;;5484039;26;20222;-52
2024/04/17 09:22:07;;;;;;;1.58;0.85;;;;;;;;;;5486457;26;20555;-52
2024/04/17 09:24:37;;;;;;;1.05;0.85;;;;;;;;;;5484155;26;20302;-54
2024/04/17 09:27:09;;;;;;;1.55;0.90;;;;;;;;;;5486786;26;20631;-53
2024/04/17 09:29:36;;;;;;;1.30;0.98;;;;;;;;;;5484115;26;20227;-55
2024/04/17 09:32:04;;;;;;;1.35;1.00;;;;;;;;;;5486050;26;20900;-52
2024/04/17 09:34:30;;;;;;;1.30;0.90;;;;;;;;;;5483979;26;20230;-56
2024/04/17 09:36:59;;;;;;;1.35;1.10;;;;;;;;;;5483795;26;20239;-55
2024/04/17 09:39:26;;;;;;;1.88;0.90;;;;;;;;;;5483846;26;20298;-57
2024/04/17 09:41:56;;;;;;;2.33;1.10;;;;;;;;;;5486116;26;20261;-56
2024/04/17 09:44:27;;;;;;;1.63;1.00;;;;;;;;;;5483743;26;20227;-56
2024/04/17 09:46:57;;;;;;;1.90;1.30;;;;;;;;;;5486263;26;20218;-53
2024/04/17 09:49:26;;;;;;;1.73;0.90;;;;;;;;;;5483363;26;20270;-56
2024/04/17 09:51:56;;;;;;;1.85;1.00;;;;;;;;;;5485924;26;20334;-57
2024/04/17 09:54:22;;;;;;;0.85;0.85;;;;;;;;;;5483161;26;20239;-57
2024/04/17 09:56:52;;;;;;;1.67;1.25;;;;;;;;;;5485891;26;20273;-58
2024/04/17 09:59:19;;;;;;;2.55;1.45;;;;;;;;;;5483391;26;20762;-58
2024/04/17 10:01:52;;;;;;;1.63;1.38;;;;;;;;;;5483291;26;20231;-57
2024/04/17 10:04:19;;;;;;;2.08;1.05;;;;;;;;;;5483455;26;20291;-58
2024/04/17 10:06:47;;;;;;;1.75;1.17;;;;;;;;;;5484222;26;20222;-58
2024/04/17 10:09:13;;;;;;;1.85;1.15;;;;;;;;;;5421525;26;20231;-57
2024/04/17 10:11:42;;;;;;;2.17;1.17;;;;;;;;;;5486101;26;20227;-58
2024/04/17 10:14:08;;;;;;;1.77;0.90;;;;;;;;;;5483331;26;20329;-58
2024/04/17 10:16:36;;;;;;;2.08;1.05;;;;;;;;;;5485636;26;20678;-57
2024/04/17 10:19:05;;;;;;;2.45;1.10;;;;;;;;;;5483212;26;20223;-58
2024/04/17 10:21:36;;;;;;;4.13;1.30;;;;;;;;;;5485572;26;20574;-58
2024/04/17 10:24:01;;;;;;;2.53;1.50;;;;;;;;;;5483345;26;20266;-58
2024/04/17 10:26:37;;;;;;;1.63;1.33;;;;;;;;;;5485584;26;20222;-57
2024/04/17 10:29:03;;;;;;;3.55;1.77;;;;;;;;;;5482953;26;20230;-57
2024/04/17 10:31:35;;;;;;;2.65;1.90;;;;;;;;;;5485652;26;20265;-57
2024/04/17 10:34:00;;;;;;;2.50;1.73;;;;;;;;;;5483013;26;20227;-58
2024/04/17 10:36:31;;;;;;;4.15;1.45;;;;;;;;;;5483907;26;20366;-58
2024/04/17 10:38:57;;;;;;;4.68;1.80;;;;;;;;;;5483085;26;20761;-58
2024/04/17 10:41:30;;;;;;;3.80;2.00;;;;;;;;;;5485804;26;20227;-58
2024/04/17 10:43:56;;;;;;;6.70;2.15;;;;;;;;;;5483272;26;20222;-58
2024/04/17 10:46:24;;;;;;;2.15;1.70;;;;;;;;;;5422196;26;20392;-58
2024/04/17 10:48:50;;;;;;;2.78;1.92;;;;;;;;;;5482886;26;20281;-58
2024/04/17 10:51:20;;;;;;;3.55;1.90;;;;;;;;;;5485186;26;20231;-58
2024/04/17 10:53:48;;;;;;;3.13;2.10;;;;;;;;;;5482265;26;20350;-58
2024/04/17 10:56:16;;;;;;;5.75;2.38;;;;;;;;;;5485347;26;20656;-58
2024/04/17 10:58:42;;;;;;;11.05;7.97;;;;;;;;;;5482802;26;20305;-58
2024/04/17 11:01:12;;;;;;;5.07;4.15;;;;;;;;;;5485300;26;21196;-58
2024/04/17 11:03:38;;;;;;;5.00;3.53;;;;;;;;;;5482779;26;20269;-58
2024/04/17 11:06:07;;;;;;;3.88;3.10;;;;;;;;;;5485097;26;20227;-58
2024/04/17 11:08:33;;;;;;;4.63;2.85;;;;;;;;;;5482145;26;20272;-58
2024/04/17 11:11:03;;;;;;;2.63;2.30;;;;;;;;;;5485139;26;20680;-59
2024/04/17 11:13:29;;;;;;;4.45;2.38;;;;;;;;;;5482162;26;20360;-57
2024/04/17 11:15:57;;;;;;;2.28;1.90;;;;;;;;;;5485079;26;20223;-58
2024/04/17 11:18:23;;;;;;;1.67;1.58;;;;;;;;;;5422474;26;20235;-57
2024/04/17 11:20:51;;;;;;;3.00;1.85;;;;;;;;;;5488366;26;20239;-57
2024/04/17 11:23:17;;;;;;;3.85;1.85;;;;;;;;;;5485641;26;20707;-57
2024/04/17 11:25:45;;;;;;;3.88;2.30;;;;;;;;;;5487929;26;20335;-56
2024/04/17 11:28:13;;;;;;;4.22;2.55;;;;;;;;;;5485354;26;20231;-55
2024/04/17 11:30:47;;;;;;;4.30;2.60;;;;;;;;;;5488132;26;20231;-56
2024/04/17 11:33:13;;;;;;;4.03;2.65;;;;;;;;;;5422206;26;20227;-55
2024/04/17 11:35:41;;;;;;;4.22;2.88;;;;;;;;;;5487362;26;20327;-56
2024/04/17 11:38:07;;;;;;;3.67;2.80;;;;;;;;;;5485473;26;20761;-57
2024/04/17 11:40:35;;;;;;;4.63;2.97;;;;;;;;;;5487847;26;20227;-56
2024/04/17 11:43:01;;;;;;;3.22;2.85;;;;;;;;;;5485423;26;20215;-57
2024/04/17 11:45:32;;;;;;;4.82;3.08;;;;;;;;;;5487874;26;20304;-55
2024/04/17 11:47:58;;;;;;;4.03;2.15;;;;;;;;;;5485380;26;20355;-53
2024/04/17 11:50:26;;;;;;;4.32;2.70;;;;;;;;;;5487891;26;20231;-56
2024/04/17 11:52:51;;;;;;;4.35;3.10;;;;;;;;;;5485105;26;20239;-57
2024/04/17 11:55:20;;;;;;;4.55;3.60;;;;;;;;;;5488111;26;20708;-51
2024/04/17 11:57:45;;;;;;;6.88;3.53;;;;;;;;;;5484941;26;20230;-52
2024/04/17 12:00:13;;;;;;;5.75;3.95;;;;;;;;;;5487813;26;20723;-52
2024/04/17 12:02:42;;;;;;;5.30;4.20;;;;;;;;;;5485235;26;20227;-54
2024/04/17 12:05:10;;;;;;;7.15;4.50;;;;;;;;;;5487516;26;20227;-53
2024/04/17 12:07:35;;;;;;;4.38;3.88;;;;;;;;;;5485435;26;20719;-54
2024/04/17 12:10:04;;;;;;;4.95;4.03;;;;;;;;;;5487971;26;20286;-54
2024/04/17 12:12:30;;;;;;;7.53;4.38;;;;;;;;;;5485535;26;20337;-54
2024/04/17 12:14:58;;;;;;;5.95;3.90;;;;;;;;;;5487786;26;20254;-52
2024/04/17 12:17:23;;;;;;;7.03;3.30;;;;;;;;;;5484962;26;20223;-53
2024/04/17 12:19:54;;;;;;;3.72;3.13;;;;;;;;;;5487148;26;20672;-52
2024/04/17 12:22:20;;;;;;;6.00;3.90;;;;;;;;;;5484820;26;20273;-56
2024/04/17 12:27:32;;;;;;;3.13;2.80;;;;;;;;;;5487733;26;20277;-56
2024/04/17 12:30:00;;;;;;;5.03;3.85;;;;;;;;;;5483867;26;20231;-56
2024/04/17 12:32:28;;;;;;;5.55;4.07;;;;;;;;;;5484628;26;20277;-55
2024/04/17 12:34:59;;;;;;;3.38;2.83;;;;;;;;;;5484779;26;20226;-55
2024/04/17 12:37:27;;;;;;;2.83;2.60;;;;;;;;;;5484830;26;20961;-57
2024/04/17 12:39:55;;;;;;;3.45;1.80;;;;;;;;;;5484701;26;20338;-57
2024/04/17 12:42:24;;;;;;;2.28;1.30;;;;;;;;;;5484798;26;20230;-57
2024/04/17 12:44:52;;;;;;;2.58;1.50;;;;;;;;;;5484698;26;20235;-57
2024/04/17 12:47:17;;;;;;;1.65;1.33;;;;;;;;;;5484767;26;20227;-56
2024/04/17 12:49:45;;;;;;;3.15;1.10;;;;;;;;;;5423701;26;20269;-56
2024/04/17 12:52:16;;;;;;;3.35;1.40;;;;;;;;;;5484846;26;20239;-55
2024/04/17 12:54:42;;;;;;;2.45;1.40;;;;;;;;;;5484451;26;20239;-57
2024/04/17 12:57:10;;;;;;;1.13;0.88;;;;;;;;;;5487295;26;20323;-57
2024/04/17 12:59:39;;;;;;;1.98;0.98;;;;;;;;;;5484390;26;20226;-56
2024/04/17 13:02:04;;;;;;;0.95;0.95;;;;;;;;;;5484118;26;20227;-56
2024/04/17 13:04:32;;;;;;;1.98;1.20;;;;;;;;;;5486814;26;20269;-54
2024/04/17 13:06:58;;;;;;;2.78;1.27;;;;;;;;;;5484519;26;20291;-55
2024/04/17 13:09:29;;;;;;;2.83;1.25;;;;;;;;;;5486727;26;20215;-56
2024/04/17 13:11:54;;;;;;;3.50;1.30;;;;;;;;;;5484147;26;20312;-56
2024/04/17 13:14:23;;;;;;;3.08;1.10;;;;;;;;;;5486817;26;20230;-55
2024/04/17 13:16:48;;;;;;;5.32;1.48;;;;;;;;;;5483834;26;20295;-56
2024/04/17 13:19:16;;;;;;;2.80;1.10;;;;;;;;;;5486737;26;20343;-56
2024/04/17 13:21:42;;;;;;;3.03;1.27;;;;;;;;;;5484047;26;20890;-56
2024/04/17 13:24:10;;;;;;;2.47;1.08;;;;;;;;;;5486442;26;20265;-57
2024/04/17 13:26:38;;;;;;;4.03;1.75;;;;;;;;;;5484079;26;20235;-53
2024/04/17 13:29:07;;;;;;;2.10;1.85;;;;;;;;;;5486236;26;20223;-57
2024/04/17 13:31:32;;;;;;;3.03;1.63;;;;;;;;;;5484091;26;20231;-58
2024/04/17 13:34:02;;;;;;;3.55;1.42;;;;;;;;;;5486629;26;20269;-58
2024/04/17 13:36:28;;;;;;;3.00;1.50;;;;;;;;;;5420821;26;20727;-56
2024/04/17 13:38:56;;;;;;;1.20;0.90;;;;;;;;;;5486291;26;20269;-57
2024/04/17 13:41:22;;;;;;;2.92;1.05;;;;;;;;;;5483257;26;20227;-56
2024/04/17 13:43:53;;;;;;;1.35;0.85;;;;;;;;;;5485962;26;20231;-57
2024/04/17 13:46:19;;;;;;;1.63;0.82;;;;;;;;;;5483684;26;20222;-56
2024/04/17 13:48:47;;;;;;;1.35;0.55;;;;;;;;;;5486462;26;20231;-55
2024/04/17 13:51:14;;;;;;;1.05;0.60;;;;;;;;;;5483476;26;20262;-57
2024/04/17 13:53:42;;;;;;;0.50;0.50;;;;;;;;;;5486523;26;20239;-56
2024/04/17 13:56:11;;;;;;;0.68;0.50;;;;;;;;;;5483574;26;20215;-56
2024/04/17 13:58:39;;;;;;;0.65;0.63;;;;;;;;;;5486169;26;20231;-53
2024/04/17 14:01:08;;;;;;;0.32;0.32;;;;;;;;;;5421246;26;20227;-55
2024/04/17 14:03:36;;;;;;;0.50;0.50;;;;;;;;;;5486166;26;20303;-55
2024/04/17 14:06:02;;;;;;;0.30;0.30;;;;;;;;;;5483646;26;20568;-54
2024/04/17 14:08:30;;;;;;;0.65;0.35;;;;;;;;;;5485811;26;20235;-54
2024/04/17 14:10:57;;;;;;;0.65;0.43;;;;;;;;;;5483562;26;20265;-53
2024/04/17 14:13:27;;;;;;;0.35;0.35;;;;;;;;;;5485549;26;20327;-55
2024/04/17 14:15:53;;;;;;;1.10;0.50;;;;;;;;;;5449993;26;20223;-55
2024/04/17 14:18:25;;;;;;;0.35;0.35;;;;;;;;;;5485707;26;20604;-55
2024/04/17 14:20:51;;;;;;;0.50;0.50;;;;;;;;;;5483354;26;20222;-56
2024/04/17 14:23:19;;;;;;;0.88;0.60;;;;;;;;;;5485610;26;20290;-56
2024/04/17 14:25:53;;;;;;;0.43;0.20;;;;;;;;;;5483237;26;20219;-55
2024/04/17 14:28:21;;;;;;;0.30;0.30;;;;;;;;;;5486252;26;20239;-55
2024/04/17 14:30:53;;;;;;;0.52;0.50;;;;;;;;;;5484431;26;20227;-55
2024/04/17 14:33:25;;;;;;;2.85;1.05;;;;;;;;;;5486501;26;20273;-55
2024/04/17 14:35:50;;;;;;;1.45;1.27;;;;;;;;;;5483307;26;20235;-56
2024/04/17 14:38:19;;;;;;;1.35;0.90;;;;;;;;;;5485542;26;20276;-56
2024/04/17 14:40:51;;;;;;;0.60;0.50;;;;;;;;;;5482988;26;20356;-55
2024/04/17 14:43:20;;;;;;;0.50;0.50;;;;;;;;;;5485275;26;20330;-56
2024/04/17 14:45:51;;;;;;;0.75;0.68;;;;;;;;;;5482715;26;20282;-52